createdAt,value
2022-08-14T00:00:09.778Z,4.34
2022-08-14T00:00:36.014Z,1.44
2022-08-14T00:00:57.582Z,10.46
2022-08-14T00:01:31.146Z,6.43
2022-08-14T00:02:02.418Z,5.79
2022-08-14T00:02:33.468Z,2.89
2022-08-14T00:03:05.401Z,6.11
2022-08-14T00:03:36.357Z,8.69
2022-08-14T00:04:32.008Z,11.90
2022-08-14T00:04:41.994Z,7.24
2022-08-14T00:05:13.484Z,7.24
2022-08-14T00:05:35.252Z,7.24
2022-08-14T00:06:01.965Z,8.69
2022-08-14T00:06:33.521Z,6.43
2022-08-14T00:07:06.071Z,6.11
2022-08-14T00:07:35.302Z,4.34
2022-08-14T00:07:53.574Z,10.46
2022-08-14T00:08:44.931Z,6.11
2022-08-14T00:08:59.280Z,6.43
2022-08-14T00:09:29.526Z,5.47
2022-08-14T00:10:49.864Z,6.92
2022-08-14T00:11:06.448Z,6.92
2022-08-14T00:11:35.248Z,7.88
2022-08-14T00:11:55.304Z,8.20
2022-08-14T00:12:33.762Z,4.66
2022-08-14T00:12:57.597Z,9.01
2022-08-14T00:13:31.012Z,4.02
2022-08-14T00:14:02.196Z,6.11
2022-08-14T00:14:33.343Z,4.34
2022-08-14T00:15:06.401Z,2.89
2022-08-14T00:15:37.346Z,4.34
2022-08-14T00:15:53.597Z,5.47
2022-08-14T00:16:41.183Z,5.79
2022-08-14T00:16:57.668Z,7.88
2022-08-14T00:17:29.484Z,4.66
2022-08-14T00:18:01.947Z,4.98
2022-08-14T00:19:05.987Z,5.47
2022-08-14T00:19:21.838Z,3.54
2022-08-14T00:19:53.486Z,7.88
2022-08-14T00:20:29.237Z,3.54
2022-08-14T00:20:44.338Z,3.54
2022-08-14T00:21:14.291Z,5.79
2022-08-14T00:21:36.366Z,4.98
2022-08-14T00:22:01.937Z,9.65
2022-08-14T00:22:56.039Z,4.66
2022-08-14T00:23:12.254Z,7.24
2022-08-14T00:23:35.286Z,4.02
2022-08-14T00:23:53.763Z,9.33
2022-08-14T00:24:29.069Z,8.69
2022-08-14T00:24:42.669Z,4.66
2022-08-14T00:25:14.122Z,10.13
2022-08-14T00:25:42.512Z,8.69
2022-08-14T00:26:06.577Z,9.65
2022-08-14T00:26:34.276Z,4.98
2022-08-14T00:27:05.523Z,9.33
2022-08-14T00:27:35.305Z,6.11
2022-08-14T00:27:54.129Z,.32
2022-08-14T00:28:25.457Z,4.02
2022-08-14T00:28:42.786Z,6.92
2022-08-14T00:29:13.605Z,1.77
2022-08-14T00:29:40.640Z,6.11
2022-08-14T00:30:02.057Z,3.21
2022-08-14T00:30:33.433Z,7.88
2022-08-14T00:31:06.606Z,9.01
2022-08-14T00:31:44.222Z,5.47
2022-08-14T00:31:56.008Z,3.21
2022-08-14T00:32:51.041Z,4.98
2022-08-14T00:33:16.038Z,4.34
2022-08-14T00:33:51.059Z,4.02
2022-08-14T00:34:35.534Z,5.47
2022-08-14T00:34:49.447Z,1.77
2022-08-14T00:35:22.795Z,4.66
2022-08-14T00:36:35.083Z,9.33
2022-08-14T00:36:58.537Z,9.33
2022-08-14T00:37:29.598Z,6.92
2022-08-14T00:38:01.938Z,6.11
2022-08-14T00:38:34.592Z,4.34
2022-08-14T00:39:06.407Z,6.92
2022-08-14T00:39:35.401Z,2.89
2022-08-14T00:39:53.613Z,6.11
2022-08-14T00:40:32.947Z,6.92
2022-08-14T00:40:46.255Z,10.78
2022-08-14T00:41:13.893Z,10.13
2022-08-14T00:41:36.278Z,4.98
2022-08-14T00:42:02.268Z,8.69
2022-08-14T00:42:55.674Z,7.88
2022-08-14T00:43:05.711Z,8.69
2022-08-14T00:43:37.375Z,9.65
2022-08-14T00:44:09.604Z,9.33
2022-08-14T00:44:35.563Z,7.56
2022-08-14T00:44:57.385Z,9.65
2022-08-14T00:45:30.462Z,4.98
2022-08-14T00:46:01.931Z,7.88
2022-08-14T00:46:34.527Z,3.21
2022-08-14T00:47:05.353Z,2.89
2022-08-14T00:47:43.049Z,5.79
2022-08-14T00:47:53.483Z,6.11
2022-08-14T00:48:34.433Z,1.44
2022-08-14T00:48:43.142Z,5.47
2022-08-14T00:49:14.476Z,6.43
2022-08-14T00:49:38.094Z,5.47
2022-08-14T00:50:02.023Z,4.66
2022-08-14T00:50:33.454Z,4.98
2022-08-14T00:51:06.458Z,3.21
2022-08-14T00:51:38.297Z,.32
2022-08-14T00:52:10.051Z,8.20
2022-08-14T00:52:35.355Z,2.89
2022-08-14T00:52:57.373Z,6.11
2022-08-14T00:53:29.399Z,3.54
2022-08-14T00:54:21.702Z,8.20
2022-08-14T00:54:35.872Z,7.88
2022-08-14T00:55:05.360Z,3.21
2022-08-14T00:55:36.089Z,6.43
2022-08-14T00:55:53.470Z,8.69
2022-08-14T00:56:25.985Z,4.66
2022-08-14T00:56:43.115Z,1.44
2022-08-14T00:57:13.334Z,5.79
2022-08-14T00:57:35.357Z,8.69
2022-08-14T00:58:02.019Z,9.01
2022-08-14T00:58:34.267Z,6.92
2022-08-14T00:59:05.347Z,5.47
2022-08-14T00:59:35.347Z,6.11
2022-08-14T00:59:53.414Z,3.54
2022-08-14T01:00:37.447Z,3.54
2022-08-14T01:00:58.007Z,2.09
2022-08-14T01:01:30.124Z,4.34
2022-08-14T01:02:02.015Z,4.02
2022-08-14T01:02:33.600Z,4.66
2022-08-14T01:03:05.356Z,4.02
2022-08-14T01:03:35.198Z,7.24
2022-08-14T01:03:53.550Z,4.66
2022-08-14T01:04:52.453Z,4.66
2022-08-14T01:04:58.443Z,3.54
2022-08-14T01:05:29.380Z,3.54
2022-08-14T01:06:01.921Z,6.11
2022-08-14T01:06:34.956Z,3.54
2022-08-14T01:07:07.508Z,7.24
2022-08-14T01:07:47.312Z,8.69
2022-08-14T01:08:50.683Z,9.65
2022-08-14T01:09:13.440Z,4.34
2022-08-14T01:09:35.323Z,7.88
2022-08-14T01:10:02.622Z,5.47
2022-08-14T01:10:38.362Z,4.02
2022-08-14T01:11:05.341Z,5.47
2022-08-14T01:11:36.373Z,10.46
2022-08-14T01:12:02.538Z,7.56
2022-08-14T01:12:27.406Z,4.66
2022-08-14T01:12:42.779Z,5.79
2022-08-14T01:13:13.443Z,6.43
2022-08-14T01:13:42.657Z,5.79
2022-08-14T01:14:04.778Z,6.92
2022-08-14T01:14:33.312Z,4.34
2022-08-14T01:15:05.451Z,9.33
2022-08-14T01:15:58.369Z,7.88
2022-08-14T01:16:09.507Z,2.09
2022-08-14T01:16:35.225Z,4.02
2022-08-14T01:16:57.327Z,4.66
2022-08-14T01:17:29.418Z,3.54
2022-08-14T01:18:02.021Z,2.09
2022-08-14T01:18:33.399Z,5.47
2022-08-14T01:19:05.345Z,5.47
2022-08-14T01:19:35.436Z,1.77
2022-08-14T01:19:53.908Z,3.54
2022-08-14T01:20:27.655Z,4.02
2022-08-14T01:20:42.848Z,5.79
2022-08-14T01:21:15.565Z,2.57
2022-08-14T01:21:38.709Z,3.54
2022-08-14T01:22:02.330Z,6.11
2022-08-14T01:22:33.441Z,7.24
2022-08-14T01:23:05.279Z,6.11
2022-08-14T01:23:46.648Z,4.34
2022-08-14T01:24:10.985Z,3.54
2022-08-14T01:24:36.141Z,2.89
2022-08-14T01:24:57.881Z,4.02
2022-08-14T01:25:29.361Z,3.21
2022-08-14T01:26:02.545Z,7.56
2022-08-14T01:26:35.748Z,4.66
2022-08-14T01:27:07.113Z,1.44
2022-08-14T01:27:36.632Z,2.57
2022-08-14T01:28:11.380Z,1.44
2022-08-14T01:29:03.565Z,0
2022-08-14T01:29:40.366Z,4.02
2022-08-14T01:30:17.408Z,1.12
2022-08-14T01:30:39.911Z,0
2022-08-14T01:31:07.585Z,2.09
2022-08-14T01:31:37.193Z,4.02
2022-08-14T01:31:53.388Z,0
2022-08-14T01:32:25.332Z,1.77
2022-08-14T01:32:42.936Z,.32
2022-08-14T01:33:13.359Z,6.11
2022-08-14T01:33:39.572Z,7.24
2022-08-14T01:35:18.200Z,1.77
2022-08-14T01:36:05.586Z,3.54
2022-08-14T01:36:25.378Z,3.54
2022-08-14T01:36:43.326Z,2.09
2022-08-14T01:37:13.948Z,2.09
2022-08-14T01:37:36.104Z,1.44
2022-08-14T01:38:01.875Z,7.56
2022-08-14T01:38:33.325Z,.64
2022-08-14T01:39:05.201Z,2.57
2022-08-14T01:39:35.410Z,1.44
2022-08-14T01:39:54.486Z,2.89
2022-08-14T01:40:36.498Z,2.09
2022-08-14T01:40:57.345Z,0
2022-08-14T01:41:30.217Z,.32
2022-08-14T01:42:01.954Z,2.89
2022-08-14T01:42:36.048Z,4.02
2022-08-14T01:43:05.331Z,1.12
2022-08-14T01:43:35.978Z,4.02
2022-08-14T01:43:56.579Z,1.77
2022-08-14T01:44:32.800Z,1.44
2022-08-14T01:44:57.787Z,0
2022-08-14T01:45:29.412Z,1.44
2022-08-14T01:46:06.872Z,.32
2022-08-14T01:46:36.871Z,1.12
2022-08-14T01:47:07.346Z,.32
2022-08-14T01:47:37.245Z,1.44
2022-08-14T01:48:03.295Z,1.44
2022-08-14T01:48:25.699Z,5.79
2022-08-14T01:48:43.526Z,4.66
2022-08-14T01:49:13.385Z,4.66
2022-08-14T01:49:46.009Z,2.89
2022-08-14T01:50:17.306Z,2.09
2022-08-14T01:50:35.214Z,4.34
2022-08-14T01:51:05.242Z,2.09
2022-08-14T01:51:35.255Z,.32
2022-08-14T01:51:53.392Z,1.77
2022-08-14T01:52:34.712Z,4.66
2022-08-14T01:53:13.350Z,1.77
2022-08-14T01:53:35.979Z,2.57
2022-08-14T01:54:01.872Z,1.12
2022-08-14T01:54:38.120Z,1.44
2022-08-14T01:55:05.355Z,1.44
2022-08-14T01:55:35.254Z,3.54
2022-08-14T01:55:53.395Z,2.57
2022-08-14T01:56:25.302Z,1.12
2022-08-14T01:56:43.241Z,1.77
2022-08-14T01:57:13.350Z,2.89
2022-08-14T01:57:49.449Z,2.57
2022-08-14T01:58:19.781Z,2.57
2022-08-14T01:58:35.363Z,3.54
2022-08-14T01:59:05.258Z,1.12
2022-08-14T01:59:37.795Z,0
2022-08-14T02:00:09.746Z,4.02
2022-08-14T02:00:36.130Z,3.21
2022-08-14T02:00:57.283Z,1.44
2022-08-14T02:01:29.525Z,2.09
2022-08-14T02:02:01.947Z,2.09
2022-08-14T02:02:34.005Z,.32
2022-08-14T02:03:06.785Z,5.47
2022-08-14T02:03:35.905Z,2.89
2022-08-14T02:03:57.166Z,0
2022-08-14T02:04:54.702Z,0
2022-08-14T02:05:13.318Z,1.44
2022-08-14T02:05:38.248Z,2.57
2022-08-14T02:06:04.242Z,4.66
2022-08-14T02:06:36.148Z,1.12
2022-08-14T02:07:05.564Z,4.66
2022-08-14T02:07:55.547Z,2.89
2022-08-14T02:08:10.335Z,2.09
2022-08-14T02:08:35.830Z,3.54
2022-08-14T02:08:57.307Z,3.54
2022-08-14T02:09:29.300Z,1.44
2022-08-14T02:10:01.925Z,1.77
2022-08-14T02:10:33.570Z,1.77
2022-08-14T02:11:05.374Z,2.89
2022-08-14T02:11:35.671Z,2.57
2022-08-14T02:11:54.622Z,5.47
2022-08-14T02:12:26.390Z,4.66
2022-08-14T02:12:43.611Z,6.43
2022-08-14T02:13:13.337Z,6.43
2022-08-14T02:13:37.630Z,6.92
2022-08-14T02:14:07.015Z,3.54
2022-08-14T02:14:33.487Z,3.54
2022-08-14T02:15:05.643Z,6.43
2022-08-14T02:15:35.450Z,4.02
2022-08-14T02:15:53.381Z,5.47
2022-08-14T02:16:25.312Z,6.92
2022-08-14T02:16:57.287Z,7.24
2022-08-14T02:17:31.040Z,2.89
2022-08-14T02:18:01.866Z,5.79
2022-08-14T02:18:35.145Z,3.21
2022-08-14T02:19:05.311Z,3.21
2022-08-14T02:19:35.379Z,2.89
2022-08-14T02:19:53.354Z,4.66
2022-08-14T02:20:25.238Z,4.66
2022-08-14T02:20:42.448Z,4.02
2022-08-14T02:21:13.337Z,1.77
2022-08-14T02:21:39.554Z,0
2022-08-14T02:22:02.785Z,7.24
2022-08-14T02:22:33.949Z,4.66
2022-08-14T02:23:05.290Z,4.66
2022-08-14T02:23:36.452Z,4.02
2022-08-14T02:23:53.852Z,4.66
2022-08-14T02:24:39.154Z,2.89
2022-08-14T02:24:57.288Z,4.98
2022-08-14T02:25:31.077Z,8.20
2022-08-14T02:26:24.963Z,4.02
2022-08-14T02:28:18.923Z,4.66
2022-08-14T02:28:57.355Z,4.02
2022-08-14T02:29:14.093Z,6.11
2022-08-14T02:30:00.604Z,5.47
2022-08-14T02:30:18.663Z,5.47
2022-08-14T02:30:38.320Z,2.89
2022-08-14T02:31:05.208Z,1.12
2022-08-14T02:31:42.191Z,3.54
2022-08-14T02:31:53.430Z,3.54
2022-08-14T02:32:35.908Z,5.47
2022-08-14T02:32:42.904Z,6.11
2022-08-14T02:33:14.163Z,5.47
2022-08-14T02:33:39.104Z,1.44
2022-08-14T02:34:05.786Z,1.77
2022-08-14T02:34:36.446Z,2.09
2022-08-14T02:35:05.495Z,2.57
2022-08-14T02:35:40.976Z,2.89
2022-08-14T02:36:04.943Z,1.44
2022-08-14T02:37:02.486Z,10.13
2022-08-14T02:37:13.379Z,1.12
2022-08-14T02:37:47.985Z,1.12
2022-08-14T02:38:06.136Z,1.44
2022-08-14T02:38:39.228Z,.32
2022-08-14T02:39:16.308Z,3.21
2022-08-14T02:39:36.193Z,4.02
2022-08-14T02:39:54.492Z,1.77
2022-08-14T02:40:32.200Z,.64
2022-08-14T02:40:45.529Z,1.12
2022-08-14T02:41:13.594Z,2.09
2022-08-14T02:42:13.130Z,1.12
2022-08-14T02:42:17.315Z,.32
2022-08-14T02:42:38.899Z,1.12
2022-08-14T02:43:06.461Z,1.44
2022-08-14T02:43:37.123Z,.32
2022-08-14T02:43:53.241Z,1.44
2022-08-14T02:44:29.706Z,1.44
2022-08-14T02:44:43.065Z,2.09
2022-08-14T02:45:14.241Z,1.44
2022-08-14T02:45:38.864Z,1.44
2022-08-14T02:46:02.732Z,1.12
2022-08-14T02:46:33.829Z,1.12
2022-08-14T02:47:07.142Z,3.54
2022-08-14T02:47:36.031Z,1.12
2022-08-14T02:49:01.122Z,1.12
2022-08-14T02:49:13.313Z,1.44
2022-08-14T02:49:36.402Z,1.44
2022-08-14T02:50:03.121Z,1.44
2022-08-14T02:50:34.009Z,2.09
2022-08-14T02:51:05.255Z,3.54
2022-08-14T02:51:36.766Z,4.34
2022-08-14T02:51:53.367Z,.64
2022-08-14T02:52:55.923Z,1.44
2022-08-14T02:53:13.522Z,0
2022-08-14T02:53:37.388Z,1.77
2022-08-14T02:54:01.922Z,2.09
2022-08-14T02:54:34.376Z,1.44
2022-08-14T02:55:05.229Z,.64
2022-08-14T02:55:36.962Z,.64
2022-08-14T02:56:10.240Z,1.44
2022-08-14T02:57:16.655Z,0
2022-08-14T02:57:45.404Z,2.09
2022-08-14T02:58:21.419Z,1.44
2022-08-14T02:58:35.248Z,.64
2022-08-14T02:59:05.666Z,2.09
2022-08-14T02:59:36.115Z,2.09
2022-08-14T02:59:53.279Z,1.44
2022-08-14T03:00:25.353Z,1.77
2022-08-14T03:00:43.008Z,1.77
2022-08-14T03:01:13.259Z,1.77
2022-08-14T03:01:43.256Z,1.12
2022-08-14T03:02:02.055Z,1.44
2022-08-14T03:02:56.224Z,0
2022-08-14T03:03:07.849Z,1.12
2022-08-14T03:03:35.482Z,1.12
2022-08-14T03:03:53.327Z,1.12
2022-08-14T03:04:26.255Z,.32
2022-08-14T03:04:57.323Z,0
2022-08-14T03:05:30.173Z,0
2022-08-14T03:06:01.899Z,0
2022-08-14T03:06:48.952Z,0
2022-08-14T03:07:07.764Z,.32
2022-08-14T03:07:35.252Z,2.57
2022-08-14T03:08:09.407Z,1.77
2022-08-14T03:08:35.313Z,1.44
2022-08-14T03:08:57.279Z,1.12
2022-08-14T03:09:42.261Z,1.77
2022-08-14T03:10:34.040Z,.64
2022-08-14T03:11:05.948Z,1.44
2022-08-14T03:11:35.406Z,.64
2022-08-14T03:11:54.243Z,.64
2022-08-14T03:12:31.218Z,4.02
2022-08-14T03:12:42.544Z,2.57
2022-08-14T03:13:19.466Z,1.77
2022-08-14T03:13:35.795Z,2.89
2022-08-14T03:14:01.766Z,1.77
2022-08-14T03:14:34.098Z,.32
2022-08-14T03:15:05.364Z,0
2022-08-14T03:15:36.242Z,.32
2022-08-14T03:15:55.171Z,1.12
2022-08-14T03:16:26.723Z,.32
2022-08-14T03:16:43.193Z,.32
2022-08-14T03:17:13.192Z,.32
2022-08-14T03:17:41.110Z,0
2022-08-14T03:18:01.736Z,0
2022-08-14T03:18:33.274Z,2.09
2022-08-14T03:19:06.269Z,2.09
2022-08-14T03:19:35.456Z,1.77
2022-08-14T03:19:53.441Z,.32
2022-08-14T03:20:25.247Z,1.44
2022-08-14T03:20:42.562Z,0
2022-08-14T03:21:13.314Z,1.44
2022-08-14T03:21:35.416Z,.64
2022-08-14T03:22:01.967Z,0
2022-08-14T03:22:33.260Z,0
2022-08-14T03:23:05.340Z,1.77
2022-08-14T03:23:37.990Z,1.77
2022-08-14T03:23:53.475Z,1.77
2022-08-14T03:24:25.373Z,1.77
2022-08-14T03:24:43.687Z,1.44
2022-08-14T03:25:13.202Z,1.44
2022-08-14T03:25:37.605Z,.32
2022-08-14T03:26:02.499Z,.32
2022-08-14T03:26:33.145Z,1.12
2022-08-14T03:27:05.422Z,0
2022-08-14T03:27:48.238Z,0
2022-08-14T03:28:14.615Z,0
2022-08-14T03:28:36.725Z,1.77
2022-08-14T03:28:57.294Z,0
2022-08-14T03:29:30.449Z,1.44
2022-08-14T03:30:05.367Z,1.77
2022-08-14T03:30:39.223Z,1.44
2022-08-14T03:31:08.398Z,1.44
2022-08-14T03:31:35.373Z,1.44
2022-08-14T03:31:53.365Z,2.09
2022-08-14T03:32:30.399Z,1.77
2022-08-14T03:32:43.514Z,1.12
2022-08-14T03:33:13.276Z,.32
2022-08-14T03:33:37.956Z,0
2022-08-14T03:34:01.589Z,.32
2022-08-14T03:34:47.833Z,.32
2022-08-14T03:35:08.818Z,1.44
2022-08-14T03:35:39.749Z,0
2022-08-14T03:36:05.686Z,.32
2022-08-14T03:39:12.817Z,2.09
2022-08-14T03:39:22.998Z,2.09
2022-08-14T03:39:54.283Z,3.54
2022-08-14T03:40:25.156Z,.64
2022-08-14T03:40:42.655Z,0
2022-08-14T03:41:16.028Z,0
2022-08-14T03:41:35.208Z,0
2022-08-14T03:42:02.013Z,1.12
2022-08-14T03:42:46.298Z,3.54
2022-08-14T03:43:05.179Z,.64
2022-08-14T03:43:35.569Z,2.09
2022-08-14T03:43:57.086Z,2.89
2022-08-14T03:45:26.480Z,2.89
2022-08-14T03:45:48.552Z,3.54
2022-08-14T03:46:52.692Z,3.54
2022-08-14T03:47:05.175Z,2.09
2022-08-14T03:47:46.578Z,1.44
2022-08-14T03:48:29.504Z,3.54
2022-08-14T03:48:40.145Z,3.54
2022-08-14T03:48:59.497Z,4.02
2022-08-14T03:49:29.916Z,4.02
2022-08-14T03:50:01.468Z,3.54
2022-08-14T03:50:33.125Z,3.54
2022-08-14T03:51:05.160Z,3.54
2022-08-14T03:51:35.993Z,3.54
2022-08-14T03:51:53.215Z,3.21
2022-08-14T03:52:39.081Z,2.57
2022-08-14T03:53:14.074Z,3.54
2022-08-14T03:53:37.212Z,3.54
2022-08-14T03:54:02.613Z,2.57
2022-08-14T03:54:34.098Z,3.54
2022-08-14T03:55:05.153Z,3.54
2022-08-14T03:55:35.672Z,3.54
2022-08-14T03:55:53.224Z,3.54
2022-08-14T03:56:26.121Z,3.54
2022-08-14T03:56:57.296Z,5.79
2022-08-14T03:57:29.213Z,3.54
2022-08-14T03:58:01.464Z,3.54
2022-08-14T03:58:36.747Z,3.54
2022-08-14T03:59:05.143Z,3.54
2022-08-14T03:59:35.533Z,3.54
2022-08-14T03:59:53.230Z,3.54
2022-08-14T04:00:43.933Z,4.02
2022-08-14T04:00:57.307Z,3.21
2022-08-14T04:01:39.173Z,3.54
2022-08-14T04:02:04.556Z,3.54
2022-08-14T04:02:37.467Z,3.21
2022-08-14T04:03:06.480Z,3.54
2022-08-14T04:03:37.393Z,3.54
2022-08-14T04:04:09.379Z,3.21
2022-08-14T04:04:36.050Z,1.77
2022-08-14T04:04:57.302Z,2.89
2022-08-14T04:05:29.441Z,4.66
2022-08-14T04:06:01.753Z,2.09
2022-08-14T04:06:33.978Z,2.89
2022-08-14T04:07:05.121Z,1.77
2022-08-14T04:07:36.074Z,.32
2022-08-14T04:08:08.417Z,.32
2022-08-14T04:08:35.234Z,0
2022-08-14T04:08:58.223Z,0
2022-08-14T04:09:29.418Z,0
2022-08-14T04:10:02.902Z,0
2022-08-14T04:10:33.306Z,0
2022-08-14T04:11:07.784Z,0
2022-08-14T04:11:37.283Z,1.12
2022-08-14T04:12:13.296Z,2.89
2022-08-14T04:12:36.183Z,1.44
2022-08-14T04:12:57.268Z,.32
2022-08-14T04:13:31.979Z,2.57
2022-08-14T04:14:01.913Z,4.02
2022-08-14T04:14:37.328Z,.64
2022-08-14T04:15:05.471Z,0
2022-08-14T04:15:52.861Z,.32
2022-08-14T04:16:12.475Z,.32
2022-08-14T04:16:38.562Z,1.12
2022-08-14T04:16:57.268Z,.64
2022-08-14T04:17:29.488Z,1.44
2022-08-14T04:18:01.668Z,1.44
2022-08-14T04:18:33.945Z,0
2022-08-14T04:19:06.479Z,0
2022-08-14T04:19:36.611Z,1.44
2022-08-14T04:19:53.397Z,1.44
2022-08-14T04:20:25.582Z,2.57
2022-08-14T04:20:51.513Z,2.89
2022-08-14T04:21:13.556Z,1.12
2022-08-14T04:21:56.246Z,.64
2022-08-14T04:22:18.262Z,0
2022-08-14T04:22:36.917Z,1.12
2022-08-14T04:23:05.375Z,2.09
2022-08-14T04:23:35.413Z,1.12
2022-08-14T04:23:58.018Z,1.77
2022-08-14T04:24:25.881Z,.32
2022-08-14T04:24:43.248Z,.64
2022-08-14T04:25:13.935Z,1.12
2022-08-14T04:25:35.566Z,1.77
2022-08-14T04:26:02.700Z,1.44
2022-08-14T04:26:42.239Z,0
2022-08-14T04:27:06.257Z,0
2022-08-14T04:27:48.608Z,0
2022-08-14T04:28:09.465Z,1.44
2022-08-14T04:29:14.809Z,3.54
2022-08-14T04:29:35.933Z,2.89
2022-08-14T04:30:01.971Z,3.54
2022-08-14T04:30:33.352Z,3.54
2022-08-14T04:31:05.452Z,2.89
2022-08-14T04:32:57.796Z,3.54
2022-08-14T04:33:18.571Z,3.54
2022-08-14T04:33:36.280Z,2.09
2022-08-14T04:34:01.575Z,1.44
2022-08-14T04:34:33.481Z,1.77
2022-08-14T04:35:07.583Z,1.77
2022-08-14T04:35:56.226Z,1.77
2022-08-14T04:36:09.606Z,1.77
2022-08-14T04:36:36.300Z,2.09
2022-08-14T04:36:57.239Z,1.44
2022-08-14T04:37:29.322Z,1.77
2022-08-14T04:38:01.759Z,1.44
2022-08-14T04:38:36.610Z,1.44
2022-08-14T04:39:06.490Z,0
2022-08-14T04:39:35.891Z,1.77
2022-08-14T04:39:57.385Z,.32
2022-08-14T04:40:27.816Z,1.44
2022-08-14T04:40:43.443Z,0
2022-08-14T04:41:15.595Z,.32
2022-08-14T04:41:37.078Z,.32
2022-08-14T04:42:01.921Z,.64
2022-08-14T04:42:33.583Z,2.89
2022-08-14T04:43:06.336Z,2.57
2022-08-14T04:43:38.971Z,2.89
2022-08-14T04:43:53.397Z,4.02
2022-08-14T04:44:26.830Z,3.21
2022-08-14T04:44:43.757Z,2.89
2022-08-14T04:45:14.439Z,3.21
2022-08-14T04:45:52.218Z,3.54
2022-08-14T04:46:57.096Z,3.54
2022-08-14T04:47:04.966Z,.32
2022-08-14T04:47:35.422Z,.32
2022-08-14T04:47:53.743Z,1.44
2022-08-14T04:48:38.982Z,3.54
2022-08-14T04:48:59.692Z,1.44
2022-08-14T04:49:29.652Z,3.54
2022-08-14T04:50:03.327Z,2.57
2022-08-14T04:50:43.453Z,2.89
2022-08-14T04:51:05.404Z,2.57
2022-08-14T04:51:47.046Z,1.44
2022-08-14T04:52:15.546Z,2.09
2022-08-14T04:52:37.427Z,3.54
2022-08-14T04:52:57.355Z,4.98
2022-08-14T04:53:34.743Z,2.89
2022-08-14T04:54:01.490Z,1.77
2022-08-14T04:54:33.322Z,1.44
2022-08-14T04:55:06.544Z,3.21
2022-08-14T04:55:35.497Z,2.89
2022-08-14T04:55:53.589Z,4.98
2022-08-14T04:56:31.476Z,5.79
2022-08-14T04:56:42.827Z,3.21
2022-08-14T04:57:13.373Z,2.57
2022-08-14T04:57:35.352Z,3.54
2022-08-14T04:58:01.947Z,3.54
2022-08-14T04:58:35.547Z,0
2022-08-14T04:59:10.423Z,1.77
2022-08-14T04:59:35.687Z,2.89
2022-08-14T04:59:54.523Z,4.66
2022-08-14T05:00:25.341Z,4.98
2022-08-14T05:00:42.774Z,4.02
2022-08-14T05:01:22.180Z,2.09
2022-08-14T05:01:40.045Z,4.02
2022-08-14T05:02:02.125Z,1.77
2022-08-14T05:02:34.695Z,3.54
2022-08-14T05:03:07.477Z,4.34
2022-08-14T05:03:35.421Z,5.47
2022-08-14T05:03:53.466Z,2.89
2022-08-14T05:04:25.742Z,2.89
2022-08-14T05:04:45.536Z,1.44
2022-08-14T05:05:14.235Z,3.54
2022-08-14T05:05:36.250Z,4.66
2022-08-14T05:06:03.117Z,1.44
2022-08-14T05:06:37.133Z,4.02
2022-08-14T05:07:06.074Z,4.02
2022-08-14T05:07:53.877Z,2.09
2022-08-14T05:08:09.776Z,2.09
2022-08-14T05:08:57.407Z,1.77
2022-08-14T05:09:14.411Z,.64
2022-08-14T05:09:35.580Z,2.09
2022-08-14T05:10:01.689Z,.64
2022-08-14T05:10:34.409Z,3.21
2022-08-14T05:11:05.220Z,4.66
2022-08-14T05:11:36.699Z,4.02
2022-08-14T05:13:10.989Z,2.89
2022-08-14T05:13:30.189Z,1.77
2022-08-14T05:14:33.824Z,1.77
2022-08-14T05:15:05.523Z,2.09
2022-08-14T05:15:35.412Z,2.57
2022-08-14T05:15:54.229Z,2.09
2022-08-14T05:16:25.290Z,2.89
2022-08-14T05:16:42.750Z,2.09
2022-08-14T05:17:13.722Z,1.44
2022-08-14T05:17:44.155Z,2.09
2022-08-14T05:18:16.921Z,3.54
2022-08-14T05:19:19.125Z,3.21
2022-08-14T05:19:44.163Z,3.54
2022-08-14T05:21:55.432Z,3.54
2022-08-14T05:22:16.737Z,2.89
2022-08-14T05:22:33.429Z,2.09
2022-08-14T05:23:07.066Z,3.21
2022-08-14T05:23:35.414Z,2.09
2022-08-14T05:23:54.132Z,2.57
2022-08-14T05:24:25.250Z,4.02
2022-08-14T05:24:42.813Z,3.54
2022-08-14T05:25:13.260Z,2.09
2022-08-14T05:25:36.566Z,1.12
2022-08-14T05:26:01.617Z,0
2022-08-14T05:26:33.358Z,.64
2022-08-14T05:27:05.829Z,2.89
2022-08-14T05:27:35.915Z,2.89
2022-08-14T05:27:54.047Z,2.09
2022-08-14T05:28:25.258Z,1.44
2022-08-14T05:28:42.777Z,1.44
2022-08-14T05:29:13.426Z,4.02
2022-08-14T05:29:35.760Z,3.21
2022-08-14T05:30:02.236Z,1.12
2022-08-14T05:30:33.392Z,2.09
2022-08-14T05:31:05.396Z,3.21
2022-08-14T05:31:39.477Z,2.09
2022-08-14T05:32:08.870Z,.64
2022-08-14T05:32:27.734Z,1.12
2022-08-14T05:32:42.948Z,1.77
2022-08-14T05:33:14.151Z,2.09
2022-08-14T05:33:35.441Z,4.02
2022-08-14T05:34:01.632Z,4.02
2022-08-14T05:34:33.267Z,1.12
2022-08-14T05:35:05.191Z,2.57
2022-08-14T05:35:36.650Z,1.44
2022-08-14T05:35:53.286Z,1.77
2022-08-14T05:36:25.288Z,1.44
2022-08-14T05:36:43.467Z,2.09
2022-08-14T05:37:13.300Z,1.77
2022-08-14T05:37:35.549Z,1.44
2022-08-14T05:38:01.630Z,2.57
2022-08-14T05:38:35.219Z,4.02
2022-08-14T05:39:05.256Z,2.09
2022-08-14T05:39:36.262Z,4.34
2022-08-14T05:39:53.510Z,2.09
2022-08-14T05:40:25.264Z,2.89
2022-08-14T05:40:43.251Z,2.09
2022-08-14T05:41:13.254Z,2.09
2022-08-14T05:41:51.037Z,1.77
2022-08-14T05:42:01.593Z,1.44
2022-08-14T05:42:34.214Z,6.11
2022-08-14T05:43:06.891Z,2.57
2022-08-14T05:43:41.238Z,1.44
2022-08-14T05:43:53.428Z,1.44
2022-08-14T05:44:29.565Z,1.77
2022-08-14T05:44:42.898Z,1.44
2022-08-14T05:45:18.498Z,4.98
2022-08-14T05:45:35.488Z,2.89
2022-08-14T05:46:02.565Z,.32
2022-08-14T05:46:33.295Z,2.09
2022-08-14T05:47:05.389Z,4.34
2022-08-14T05:47:39.317Z,1.12
2022-08-14T05:47:53.498Z,2.09
2022-08-14T05:48:32.845Z,1.44
2022-08-14T05:48:43.604Z,1.12
2022-08-14T05:49:13.402Z,5.47
2022-08-14T05:49:35.645Z,3.54
2022-08-14T05:50:01.559Z,1.12
2022-08-14T05:50:33.596Z,4.66
2022-08-14T05:51:06.775Z,4.02
2022-08-14T05:51:35.417Z,3.54
2022-08-14T05:51:53.514Z,.64
2022-08-14T05:52:39.077Z,.32
2022-08-14T05:52:58.339Z,0
2022-08-14T05:53:32.274Z,3.21
2022-08-14T05:54:13.684Z,4.98
2022-08-14T05:54:35.263Z,2.89
2022-08-14T05:55:05.267Z,1.12
2022-08-14T05:55:36.792Z,2.09
2022-08-14T05:55:53.695Z,3.21
2022-08-14T05:56:25.359Z,1.77
2022-08-14T05:56:42.765Z,.64
2022-08-14T05:57:13.265Z,1.12
2022-08-14T05:57:39.718Z,1.44
2022-08-14T05:58:01.660Z,0
2022-08-14T05:58:33.828Z,.32
2022-08-14T05:59:05.202Z,6.11
2022-08-14T05:59:38.859Z,4.02
2022-08-14T05:59:53.453Z,2.89
2022-08-14T06:00:29.934Z,2.57
2022-08-14T06:00:43.546Z,1.77
2022-08-14T06:01:13.906Z,3.54
2022-08-14T06:01:35.551Z,.64
2022-08-14T06:02:01.661Z,2.89
2022-08-14T06:02:33.636Z,6.43
2022-08-14T06:03:07.015Z,2.09
2022-08-14T06:03:35.869Z,4.34
2022-08-14T06:03:54.639Z,2.09
2022-08-14T06:04:25.277Z,3.54
2022-08-14T06:04:43.467Z,2.09
2022-08-14T06:05:13.366Z,2.57
2022-08-14T06:05:38.664Z,1.77
2022-08-14T06:06:02.624Z,2.89
2022-08-14T06:06:38.100Z,.64
2022-08-14T06:07:05.470Z,3.54
2022-08-14T06:07:35.511Z,3.54
2022-08-14T06:07:54.299Z,3.54
2022-08-14T06:08:36.180Z,3.54
2022-08-14T06:08:57.187Z,4.34
2022-08-14T06:09:29.861Z,1.77
2022-08-14T06:10:04.171Z,2.09
2022-08-14T06:10:33.407Z,4.66
2022-08-14T06:11:05.179Z,2.09
2022-08-14T06:11:35.594Z,2.09
2022-08-14T06:11:53.435Z,.32
2022-08-14T06:12:55.318Z,3.54
2022-08-14T06:13:13.437Z,2.09
2022-08-14T06:13:44.936Z,2.89
2022-08-14T06:14:01.612Z,4.98
2022-08-14T06:14:33.631Z,2.89
2022-08-14T06:15:05.354Z,6.92
2022-08-14T06:15:36.126Z,4.02
2022-08-14T06:15:54.400Z,2.89
2022-08-14T06:16:25.985Z,1.44
2022-08-14T06:16:43.402Z,4.02
2022-08-14T06:17:15.689Z,3.21
2022-08-14T06:17:46.256Z,2.57
2022-08-14T06:18:01.913Z,3.54
2022-08-14T06:18:33.325Z,1.44
2022-08-14T06:19:05.354Z,1.44
2022-08-14T06:19:35.823Z,2.57
2022-08-14T06:19:53.522Z,2.09
2022-08-14T06:20:25.250Z,4.66
2022-08-14T06:20:42.791Z,4.34
2022-08-14T06:21:13.685Z,3.54
2022-08-14T06:21:35.762Z,1.77
2022-08-14T06:22:01.781Z,0
2022-08-14T06:22:33.462Z,3.21
2022-08-14T06:23:05.506Z,2.89
2022-08-14T06:23:35.676Z,1.12
2022-08-14T06:23:54.548Z,2.89
2022-08-14T06:24:26.068Z,2.89
2022-08-14T06:24:43.945Z,2.09
2022-08-14T06:25:16.103Z,2.89
2022-08-14T06:25:37.217Z,1.77
2022-08-14T06:26:01.850Z,4.66
2022-08-14T06:26:34.042Z,3.54
2022-08-14T06:27:06.468Z,1.12
2022-08-14T06:27:36.506Z,2.57
2022-08-14T06:27:55.209Z,1.77
2022-08-14T06:28:28.202Z,2.89
2022-08-14T06:28:45.508Z,3.54
2022-08-14T06:29:13.503Z,.32
2022-08-14T06:29:36.030Z,0
2022-08-14T06:30:02.109Z,4.02
2022-08-14T06:30:46.552Z,4.02
2022-08-14T06:31:05.291Z,4.34
2022-08-14T06:31:36.295Z,3.54
2022-08-14T06:31:54.826Z,0
2022-08-14T06:32:48.697Z,2.57
2022-08-14T06:32:58.336Z,6.11
2022-08-14T06:35:02.116Z,3.21
2022-08-14T06:35:21.210Z,2.57
2022-08-14T06:35:54.487Z,1.77
2022-08-14T06:36:27.217Z,3.54
2022-08-14T06:36:45.127Z,4.34
2022-08-14T06:37:13.438Z,1.77